Time,TemperatureF,DewpointF,PressureIn,WindDirection,WindDirectionDegrees,WindSpeedMPH,WindSpeedGustMPH,Humidity,HourlyPrecipIn,Conditions,Clouds,dailyrainin,SoftwareType,DateUTC
2013-12-10 00:05:00,40.7,39.6,29.96,NNW,332,0.0,0.0,96,0.00,,,0.00,Wunderground v.1.15,2013-12-10 05:05:00,
2013-12-10 00:15:00,40.7,39.6,29.96,NNW,332,0.0,0.0,96,0.00,,,0.00,Wunderground v.1.15,2013-12-10 05:15:00,
2013-12-10 00:25:00,40.7,39.6,29.95,NNW,332,0.0,0.0,96,0.00,,,0.00,Wunderground v.1.15,2013-12-10 05:25:00,
2013-12-10 00:35:00,40.8,39.7,29.94,NNW,332,0.0,0.0,96,0.00,,,0.00,Wunderground v.1.15,2013-12-10 05:35:00,
2013-12-10 00:40:00,40.8,39.7,29.94,NNW,332,0.0,0.0,96,0.00,,,0.00,Wunderground v.1.15,2013-12-10 05:40:00,
2013-12-10 00:50:00,40.8,39.7,29.94,NNW,332,0.0,0.0,96,0.00,,,0.00,Wunderground v.1.15,2013-12-10 05:50:00,
2013-12-10 00:55:00,40.8,39.7,29.94,NNW,332,0.0,0.0,96,0.00,,,0.00,Wunderground v.1.15,2013-12-10 05:55:00,
2013-12-10 01:00:00,40.8,39.7,29.94,NNW,332,0.0,0.0,96,0.00,,,0.00,Wunderground v.1.15,2013-12-10 06:00:00,
2013-12-10 01:10:00,40.9,39.8,29.93,NNW,332,0.0,0.0,96,0.00,,,0.00,Wunderground v.1.15,2013-12-10 06:10:00,
2013-12-10 01:20:00,41.0,39.9,29.92,NNW,332,0.0,0.0,96,0.00,,,0.00,Wunderground v.1.15,2013-12-10 06:20:00,
2013-12-10 01:25:00,41.1,40.0,29.92,NNW,332,0.0,0.0,96,0.00,,,0.00,Wunderground v.1.15,2013-12-10 06:25:00,
2013-12-10 01:35:00,41.1,40.0,29.91,NNW,332,0.0,0.0,96,0.00,,,0.00,Wunderground v.1.15,2013-12-10 06:35:00,
2013-12-10 01:45:00,41.2,40.1,29.93,NNW,332,0.0,0.0,96,0.00,,,0.00,Wunderground v.1.15,2013-12-10 06:45:00,
2013-12-10 01:55:00,41.3,40.2,29.91,NNW,332,0.0,0.0,96,0.00,,,0.00,Wunderground v.1.15,2013-12-10 06:55:00,
2013-12-10 02:05:00,41.5,40.4,29.90,NNW,332,0.0,0.0,96,0.00,,,0.00,Wunderground v.1.15,2013-12-10 07:05:00,
2013-12-10 02:15:00,41.5,40.4,29.90,NNW,332,0.0,0.0,96,0.00,,,0.00,Wunderground v.1.15,2013-12-10 07:15:00,
2013-12-10 02:25:00,41.6,40.5,29.90,NNW,332,0.0,0.0,96,0.00,,,0.00,Wunderground v.1.15,2013-12-10 07:25:00,
2013-12-10 02:35:00,41.7,40.6,29.90,NNW,332,0.0,0.0,96,0.00,,,0.00,Wunderground v.1.15,2013-12-10 07:35:00,
2013-12-10 02:45:00,41.9,40.8,29.90,NNW,332,0.0,0.0,96,0.00,,,0.00,Wunderground v.1.15,2013-12-10 07:45:00,
2013-12-10 02:50:00,41.9,40.8,29.90,NNW,332,0.0,0.0,96,0.00,,,0.00,Wunderground v.1.15,2013-12-10 07:50:00,
2013-12-10 03:00:00,42.1,41.0,29.90,NNW,332,0.0,0.0,96,0.00,,,0.00,Wunderground v.1.15,2013-12-10 08:00:00,
2013-12-10 03:10:00,42.2,41.1,29.88,NNW,332,0.0,0.0,96,0.00,,,0.00,Wunderground v.1.15,2013-12-10 08:10:00,
2013-12-10 03:20:00,42.1,41.0,29.87,NNW,332,0.0,0.0,96,0.00,,,0.00,Wunderground v.1.15,2013-12-10 08:20:00,
2013-12-10 03:30:00,42.1,41.0,29.88,NNW,332,0.0,0.0,96,0.00,,,0.00,Wunderground v.1.15,2013-12-10 08:30:00,
2013-12-10 03:40:00,42.3,41.2,29.90,NNE,24,0.0,0.0,96,0.00,,,0.01,Wunderground v.1.15,2013-12-10 08:40:00,
2013-12-10 03:50:00,42.6,41.5,29.89,ESE,103,1.0,1.0,96,0.00,,,0.01,Wunderground v.1.15,2013-12-10 08:50:00,
2013-12-10 03:55:00,42.7,41.6,29.88,East,100,0.0,1.0,96,0.00,,,0.01,Wunderground v.1.15,2013-12-10 08:55:00,
2013-12-10 04:05:00,42.9,41.8,29.88,East,100,0.0,0.0,96,0.00,,,0.02,Wunderground v.1.15,2013-12-10 09:05:00,
2013-12-10 04:15:00,42.9,41.8,29.88,East,100,0.0,0.0,96,0.00,,,0.02,Wunderground v.1.15,2013-12-10 09:15:00,
2013-12-10 04:20:00,42.9,41.8,29.88,East,100,0.0,0.0,96,0.00,,,0.02,Wunderground v.1.15,2013-12-10 09:20:00,
2013-12-10 04:30:00,42.9,41.8,29.87,East,100,0.0,0.0,96,0.00,,,0.03,Wunderground v.1.15,2013-12-10 09:30:00,
2013-12-10 04:40:00,42.9,41.8,29.86,East,100,0.0,0.0,96,0.00,,,0.03,Wunderground v.1.15,2013-12-10 09:40:00,
2013-12-10 04:50:00,42.8,41.7,29.86,East,100,0.0,0.0,96,0.00,,,0.03,Wunderground v.1.15,2013-12-10 09:50:00,
2013-12-10 05:00:00,42.9,41.8,29.85,East,100,0.0,0.0,96,0.00,,,0.03,Wunderground v.1.15,2013-12-10 10:00:00,
2013-12-10 05:10:00,42.9,41.8,29.85,East,100,0.0,0.0,96,0.00,,,0.03,Wunderground v.1.15,2013-12-10 10:10:00,
2013-12-10 05:20:00,42.9,41.8,29.86,East,100,0.0,0.0,96,0.00,,,0.04,Wunderground v.1.15,2013-12-10 10:20:00,
2013-12-10 05:25:00,43.0,41.9,29.85,East,100,0.0,0.0,96,0.00,,,0.04,Wunderground v.1.15,2013-12-10 10:25:00,
2013-12-10 05:35:00,42.9,41.8,29.85,East,100,0.0,0.0,96,0.16,,,0.05,Wunderground v.1.15,2013-12-10 10:35:00,
2013-12-10 05:45:00,42.9,41.8,29.84,East,100,0.0,0.0,96,0.21,,,0.09,Wunderground v.1.15,2013-12-10 10:45:00,
2013-12-10 05:55:00,43.1,42.0,29.84,East,100,0.0,0.0,96,0.05,,,0.09,Wunderground v.1.15,2013-12-10 10:55:00,
2013-12-10 06:05:00,43.2,42.1,29.84,East,100,0.0,0.0,96,0.04,,,0.10,Wunderground v.1.15,2013-12-10 11:05:00,
2013-12-10 06:15:00,43.3,42.2,29.84,East,100,0.0,0.0,96,0.06,,,0.11,Wunderground v.1.15,2013-12-10 11:15:00,
2013-12-10 06:25:00,43.3,42.2,29.84,East,100,0.0,0.0,96,0.00,,,0.11,Wunderground v.1.15,2013-12-10 11:25:00,
2013-12-10 06:35:00,43.4,42.3,29.85,East,100,0.0,0.0,96,0.00,,,0.11,Wunderground v.1.15,2013-12-10 11:35:00,
2013-12-10 06:45:00,43.4,42.3,29.86,East,100,0.0,0.0,96,0.00,,,0.12,Wunderground v.1.15,2013-12-10 11:45:00,
2013-12-10 06:55:00,43.5,42.4,29.85,East,100,0.0,0.0,96,0.11,,,0.13,Wunderground v.1.15,2013-12-10 11:55:00,
2013-12-10 07:05:00,43.4,42.3,29.84,East,100,0.0,0.0,96,0.04,,,0.13,Wunderground v.1.15,2013-12-10 12:05:00,
2013-12-10 07:15:00,43.6,42.5,29.83,East,100,0.0,0.0,96,0.00,,,0.13,Wunderground v.1.15,2013-12-10 12:15:00,
2013-12-10 07:25:00,43.6,42.5,29.84,East,100,0.0,0.0,96,0.00,,,0.13,Wunderground v.1.15,2013-12-10 12:25:00,
2013-12-10 07:35:00,43.7,42.6,29.84,East,100,0.0,0.0,96,0.00,,,0.13,Wunderground v.1.15,2013-12-10 12:35:00,
2013-12-10 07:45:00,43.7,42.6,29.86,East,100,0.0,0.0,96,0.00,,,0.14,Wunderground v.1.15,2013-12-10 12:45:00,
2013-12-10 07:55:00,43.7,42.6,29.87,East,100,0.0,0.0,96,0.00,,,0.14,Wunderground v.1.15,2013-12-10 12:55:00,
2013-12-10 08:00:00,43.7,42.6,29.84,East,100,0.0,0.0,96,0.00,,,0.14,Wunderground v.1.15,2013-12-10 13:00:00,
2013-12-10 08:10:00,43.7,42.6,29.85,South,186,0.0,0.0,96,0.00,,,0.14,Wunderground v.1.15,2013-12-10 13:10:00,
2013-12-10 08:15:00,43.8,42.7,29.86,South,186,0.0,0.0,96,0.00,,,0.14,Wunderground v.1.15,2013-12-10 13:15:00,
2013-12-10 08:25:00,44.0,42.9,29.87,South,186,0.0,0.0,96,0.00,,,0.14,Wunderground v.1.15,2013-12-10 13:25:00,
2013-12-10 08:35:00,44.0,42.9,29.85,South,186,0.0,0.0,96,0.00,,,0.14,Wunderground v.1.15,2013-12-10 13:35:00,
2013-12-10 08:40:00,44.1,43.0,29.87,South,185,0.0,0.0,96,0.00,,,0.14,Wunderground v.1.15,2013-12-10 13:40:00,
2013-12-10 08:50:00,44.3,43.2,29.86,South,185,0.0,0.0,96,0.00,,,0.14,Wunderground v.1.15,2013-12-10 13:50:00,
2013-12-10 09:00:00,44.6,43.5,29.86,South,185,0.0,0.0,96,0.00,,,0.14,Wunderground v.1.15,2013-12-10 14:00:00,
2013-12-10 09:10:00,44.7,43.6,29.87,South,185,0.0,0.0,96,0.00,,,0.14,Wunderground v.1.15,2013-12-10 14:10:00,
2013-12-10 09:20:00,44.7,43.6,29.86,South,186,0.0,0.0,96,0.00,,,0.14,Wunderground v.1.15,2013-12-10 14:20:00,
2013-12-10 09:30:00,45.0,43.9,29.86,SSW,208,0.0,0.0,96,0.00,,,0.14,Wunderground v.1.15,2013-12-10 14:30:00,
2013-12-10 09:40:00,45.2,44.1,29.88,SSW,209,0.0,0.0,96,0.00,,,0.14,Wunderground v.1.15,2013-12-10 14:40:00,
2013-12-10 09:50:00,45.5,44.4,29.88,SSW,209,0.0,0.0,96,0.00,,,0.14,Wunderground v.1.15,2013-12-10 14:50:00,
2013-12-10 10:00:00,45.9,45.1,29.89,SSW,208,0.0,0.0,97,0.00,,,0.14,Wunderground v.1.15,2013-12-10 15:00:00,
2013-12-10 10:10:00,46.0,44.9,29.89,SSW,208,0.0,0.0,96,0.00,,,0.14,Wunderground v.1.15,2013-12-10 15:10:00,
2013-12-10 10:20:00,46.2,45.1,29.90,NE,53,0.0,0.0,96,0.00,,,0.14,Wunderground v.1.15,2013-12-10 15:20:00,
2013-12-10 10:25:00,46.5,45.4,29.90,ENE,59,0.0,0.0,96,0.00,,,0.14,Wunderground v.1.15,2013-12-10 15:25:00,
2013-12-10 10:35:00,46.7,45.6,29.90,ENE,59,0.0,0.0,96,0.00,,,0.14,Wunderground v.1.15,2013-12-10 15:35:00,
2013-12-10 10:50:00,46.8,45.7,29.92,NE,55,0.0,0.0,96,0.00,,,0.14,Wunderground v.1.15,2013-12-10 15:50:00,
2013-12-10 10:55:00,47.0,45.9,29.92,ENE,59,0.0,0.0,96,0.00,,,0.14,Wunderground v.1.15,2013-12-10 15:55:00,
2013-12-10 11:00:00,47.2,46.1,29.92,ENE,59,0.0,0.0,96,0.00,,,0.14,Wunderground v.1.15,2013-12-10 16:00:00,
2013-12-10 11:10:00,47.8,46.7,29.94,NE,34,0.0,0.0,96,0.00,,,0.14,Wunderground v.1.15,2013-12-10 16:10:00,
2013-12-10 11:20:00,47.9,46.5,29.94,NE,34,0.0,0.0,95,0.00,,,0.14,Wunderground v.1.15,2013-12-10 16:20:00,
2013-12-10 11:40:00,49.1,44.8,29.95,NNE,13,6.0,6.0,85,0.00,,,0.14,Wunderground v.1.15,2013-12-10 16:40:00,
2013-12-10 11:50:00,50.0,42.0,29.97,NNE,31,9.0,11.0,74,0.00,,,0.14,Wunderground v.1.15,2013-12-10 16:50:00,
2013-12-10 12:00:00,50.4,41.3,29.97,NNE,24,7.0,8.0,71,0.00,,,0.14,Wunderground v.1.15,2013-12-10 17:00:00,
2013-12-10 12:10:00,50.3,39.8,29.98,North,355,10.0,10.0,67,0.00,,,0.14,Wunderground v.1.15,2013-12-10 17:10:00,
2013-12-10 12:15:00,50.3,40.9,29.98,NNE,25,11.0,13.0,70,0.00,,,0.14,Wunderground v.1.15,2013-12-10 17:15:00,
2013-12-10 12:25:00,50.5,38.4,29.98,NNE,33,12.0,12.0,63,0.00,,,0.14,Wunderground v.1.15,2013-12-10 17:25:00,
2013-12-10 12:35:00,49.6,37.1,29.99,NNE,26,12.0,13.0,62,0.00,,,0.14,Wunderground v.1.15,2013-12-10 17:35:00,
2013-12-10 12:45:00,49.2,36.7,29.99,North,355,11.0,11.0,62,0.00,,,0.14,Wunderground v.1.15,2013-12-10 17:45:00,
2013-12-10 12:55:00,49.2,35.9,29.99,NNE,29,11.0,12.0,60,0.00,,,0.14,Wunderground v.1.15,2013-12-10 17:55:00,
2013-12-10 13:00:00,48.9,35.2,30.00,NNE,24,12.0,14.0,59,0.00,,,0.14,Wunderground v.1.15,2013-12-10 18:00:00,
2013-12-10 13:15:00,48.7,34.1,29.99,North,350,8.0,11.0,57,0.00,,,0.14,Wunderground v.1.15,2013-12-10 18:15:00,
2013-12-10 13:25:00,49.2,35.5,29.99,NNE,19,9.0,12.0,59,0.00,,,0.14,Wunderground v.1.15,2013-12-10 18:25:00,
2013-12-10 13:40:00,48.7,34.1,29.99,NNE,17,11.0,13.0,57,0.00,,,0.14,Wunderground v.1.15,2013-12-10 18:40:00,
2013-12-10 13:45:00,48.6,34.9,30.00,NE,36,11.0,14.0,59,0.00,,,0.14,Wunderground v.1.15,2013-12-10 18:45:00,
2013-12-10 13:55:00,48.4,33.9,30.00,NE,50,12.0,12.0,57,0.00,,,0.14,Wunderground v.1.15,2013-12-10 18:55:00,
2013-12-10 14:00:00,48.3,34.2,30.00,NNE,21,12.0,16.0,58,0.00,,,0.14,Wunderground v.1.15,2013-12-10 19:00:00,
2013-12-10 14:10:00,48.3,33.8,30.00,ENE,60,13.0,13.0,57,0.00,,,0.14,Wunderground v.1.15,2013-12-10 19:10:00,
2013-12-10 14:25:00,47.8,33.3,30.01,NE,51,12.0,15.0,57,0.00,,,0.14,Wunderground v.1.15,2013-12-10 19:25:00,
2013-12-10 14:30:00,47.9,33.4,30.02,NNE,33,10.0,11.0,57,0.00,,,0.14,Wunderground v.1.15,2013-12-10 19:30:00,
2013-12-10 14:40:00,47.2,32.7,30.02,NNE,18,11.0,11.0,57,0.00,,,0.14,Wunderground v.1.15,2013-12-10 19:40:00,
2013-12-10 14:50:00,46.9,32.0,30.03,North,5,10.0,11.0,56,0.00,,,0.14,Wunderground v.1.15,2013-12-10 19:50:00,
2013-12-10 15:00:00,46.7,31.4,30.04,NNE,27,10.0,14.0,55,0.00,,,0.14,Wunderground v.1.15,2013-12-10 20:00:00,
2013-12-10 15:10:00,45.9,28.8,30.05,NNE,14,14.0,14.0,51,0.00,,,0.14,Wunderground v.1.15,2013-12-10 20:10:00,
2013-12-10 15:15:00,45.6,28.5,30.05,North,5,15.0,18.0,51,0.00,,,0.14,Wunderground v.1.15,2013-12-10 20:15:00,
2013-12-10 15:25:00,45.4,28.3,30.05,NNW,333,12.0,19.0,51,0.00,,,0.14,Wunderground v.1.15,2013-12-10 20:25:00,
2013-12-10 15:35:00,45.2,29.1,30.05,NW,321,11.0,13.0,53,0.00,,,0.14,Wunderground v.1.15,2013-12-10 20:35:00,
2013-12-10 15:40:00,45.0,28.4,30.05,NNE,17,10.0,10.0,52,0.00,,,0.14,Wunderground v.1.15,2013-12-10 20:40:00,
2013-12-10 15:50:00,44.8,28.2,30.05,NNE,28,8.0,8.0,52,0.00,,,0.14,Wunderground v.1.15,2013-12-10 20:50:00,
2013-12-10 16:00:00,44.1,28.0,30.06,North,5,9.0,9.0,53,0.00,,,0.14,Wunderground v.1.15,2013-12-10 21:00:00,
2013-12-10 16:10:00,43.7,27.2,30.06,NNE,22,8.0,8.0,52,0.00,,,0.14,Wunderground v.1.15,2013-12-10 21:10:00,
2013-12-10 16:15:00,43.6,27.1,30.06,NNW,334,7.0,10.0,52,0.00,,,0.14,Wunderground v.1.15,2013-12-10 21:15:00,
2013-12-10 16:25:00,43.3,26.8,30.08,NNE,13,7.0,8.0,52,0.00,,,0.14,Wunderground v.1.15,2013-12-10 21:25:00,
2013-12-10 16:35:00,42.8,26.4,30.08,NNE,22,8.0,8.0,52,0.00,,,0.14,Wunderground v.1.15,2013-12-10 21:35:00,
2013-12-10 16:40:00,42.3,26.4,30.09,NNE,30,9.0,9.0,53,0.00,,,0.14,Wunderground v.1.15,2013-12-10 21:40:00,
2013-12-10 16:45:00,41.8,25.9,30.10,NNW,340,10.0,10.0,53,0.00,,,0.14,Wunderground v.1.15,2013-12-10 21:45:00,
2013-12-10 16:55:00,41.2,25.3,30.10,North,355,9.0,9.0,53,0.00,,,0.14,Wunderground v.1.15,2013-12-10 21:55:00,
2013-12-10 17:00:00,40.7,25.3,30.10,North,355,10.0,12.0,54,0.00,,,0.14,Wunderground v.1.15,2013-12-10 22:00:00,
2013-12-10 17:10:00,39.9,25.0,30.10,North,5,11.0,12.0,55,0.00,,,0.14,Wunderground v.1.15,2013-12-10 22:10:00,
2013-12-10 17:15:00,39.6,24.7,30.11,NNE,17,11.0,12.0,55,0.00,,,0.14,Wunderground v.1.15,2013-12-10 22:15:00,
2013-12-10 17:25:00,39.2,24.8,30.12,NNW,347,11.0,13.0,56,0.00,,,0.14,Wunderground v.1.15,2013-12-10 22:25:00,
2013-12-10 17:35:00,38.6,24.7,30.11,North,355,10.0,11.0,57,0.00,,,0.14,Wunderground v.1.15,2013-12-10 22:35:00,
2013-12-10 17:40:00,38.4,24.5,30.11,North,5,10.0,10.0,57,0.00,,,0.14,Wunderground v.1.15,2013-12-10 22:40:00,
2013-12-10 17:50:00,38.1,24.2,30.12,NNE,33,8.0,8.0,57,0.00,,,0.14,Wunderground v.1.15,2013-12-10 22:50:00,
2013-12-10 18:00:00,38.0,24.5,30.13,North,360,7.0,7.0,58,0.00,,,0.14,Wunderground v.1.15,2013-12-10 23:00:00,
2013-12-10 18:10:00,37.5,24.5,30.13,NNE,24,4.0,18.0,59,0.00,,,0.14,Wunderground v.1.15,2013-12-10 23:10:00,
2013-12-10 18:20:00,37.3,24.7,30.14,NE,43,3.0,3.0,60,0.00,,,0.14,Wunderground v.1.15,2013-12-10 23:20:00,
2013-12-10 18:30:00,36.6,25.2,30.14,NE,43,1.0,18.0,63,0.00,,,0.14,Wunderground v.1.15,2013-12-10 23:30:00,
2013-12-10 18:40:00,35.9,24.9,30.14,NE,43,1.0,1.0,64,0.00,,,0.14,Wunderground v.1.15,2013-12-10 23:40:00,
2013-12-10 18:45:00,35.7,23.9,30.15,NE,43,0.0,18.0,62,0.00,,,0.14,Wunderground v.1.15,2013-12-10 23:45:00,
2013-12-10 18:55:00,35.3,24.0,30.16,NE,43,0.0,18.0,63,0.00,,,0.14,Wunderground v.1.15,2013-12-10 23:55:00,
2013-12-10 19:05:00,35.4,24.4,30.16,NE,43,0.0,18.0,64,0.00,,,0.14,Wunderground v.1.15,2013-12-11 00:05:00,
2013-12-10 19:15:00,36.1,23.9,30.16,SSE,153,1.0,18.0,61,0.00,,,0.14,Wunderground v.1.15,2013-12-11 00:15:00,
2013-12-10 19:25:00,35.2,25.0,30.16,North,360,2.0,18.0,66,0.00,,,0.14,Wunderground v.1.15,2013-12-11 00:25:00,
2013-12-10 19:30:00,34.6,25.1,30.16,North,360,1.0,1.0,68,0.00,,,0.14,Wunderground v.1.15,2013-12-11 00:30:00,
2013-12-10 19:40:00,33.5,25.4,30.16,North,360,0.0,18.0,72,0.00,,,0.14,Wunderground v.1.15,2013-12-11 00:40:00,
2013-12-10 19:50:00,32.4,24.7,30.16,ESE,113,0.0,18.0,73,0.00,,,0.14,Wunderground v.1.15,2013-12-11 00:50:00,
2013-12-10 20:00:00,31.7,25.0,30.17,ESE,113,0.0,18.0,76,0.00,,,0.14,Wunderground v.1.15,2013-12-11 01:00:00,
2013-12-10 20:10:00,31.5,24.8,30.18,ESE,113,0.0,18.0,76,0.00,,,0.14,Wunderground v.1.15,2013-12-11 01:10:00,
2013-12-10 20:15:00,31.5,25.4,30.18,ESE,113,0.0,18.0,78,0.00,,,0.14,Wunderground v.1.15,2013-12-11 01:15:00,
2013-12-10 20:25:00,31.1,25.0,30.18,ESE,113,0.0,18.0,78,0.00,,,0.14,Wunderground v.1.15,2013-12-11 01:25:00,
2013-12-10 20:35:00,30.6,25.2,30.19,ESE,113,0.0,18.0,80,0.00,,,0.14,Wunderground v.1.15,2013-12-11 01:35:00,
2013-12-10 20:40:00,30.3,25.2,30.18,ESE,113,0.0,18.0,81,0.00,,,0.14,Wunderground v.1.15,2013-12-11 01:40:00,
2013-12-10 20:50:00,29.8,25.0,30.19,ESE,113,0.0,18.0,82,0.00,,,0.14,Wunderground v.1.15,2013-12-11 01:50:00,
2013-12-10 21:00:00,29.2,24.7,30.19,ESE,113,0.0,18.0,83,0.00,,,0.14,Wunderground v.1.15,2013-12-11 02:00:00,
2013-12-10 21:10:00,28.8,24.6,30.20,ESE,113,0.0,18.0,84,0.00,,,0.14,Wunderground v.1.15,2013-12-11 02:10:00,
2013-12-10 21:20:00,28.4,24.5,30.20,ESE,113,0.0,18.0,85,0.00,,,0.14,Wunderground v.1.15,2013-12-11 02:20:00,
2013-12-10 21:30:00,28.1,24.2,30.21,ESE,113,0.0,18.0,85,0.00,,,0.14,Wunderground v.1.15,2013-12-11 02:30:00,
2013-12-10 21:40:00,27.9,24.3,30.21,ENE,74,0.0,18.0,86,0.00,,,0.14,Wunderground v.1.15,2013-12-11 02:40:00,
2013-12-10 21:45:00,28.0,24.4,30.21,ENE,73,0.0,18.0,86,0.00,,,0.14,Wunderground v.1.15,2013-12-11 02:45:00,
2013-12-10 21:55:00,28.4,24.5,30.22,ENE,73,0.0,18.0,85,0.00,,,0.14,Wunderground v.1.15,2013-12-11 02:55:00,
2013-12-10 22:05:00,28.9,24.1,30.22,ENE,73,0.0,18.0,82,0.00,,,0.14,Wunderground v.1.15,2013-12-11 03:05:00,
2013-12-10 22:10:00,29.0,24.2,30.22,ENE,73,0.0,18.0,82,0.00,,,0.14,Wunderground v.1.15,2013-12-11 03:10:00,
2013-12-10 22:20:00,28.8,24.3,30.22,ENE,73,0.0,18.0,83,0.00,,,0.14,Wunderground v.1.15,2013-12-11 03:20:00,
2013-12-10 22:30:00,28.5,24.3,30.22,ENE,73,0.0,18.0,84,0.00,,,0.14,Wunderground v.1.15,2013-12-11 03:30:00,
2013-12-10 22:35:00,28.2,24.0,30.22,ENE,73,0.0,18.0,84,0.00,,,0.14,Wunderground v.1.15,2013-12-11 03:35:00,
2013-12-10 22:45:00,27.6,23.7,30.22,ENE,73,0.0,18.0,85,0.00,,,0.14,Wunderground v.1.15,2013-12-11 03:45:00,
2013-12-10 22:55:00,27.0,22.8,30.22,ENE,73,0.0,18.0,84,0.00,,,0.14,Wunderground v.1.15,2013-12-11 03:55:00,
2013-12-10 23:05:00,26.9,22.7,30.22,ENE,73,0.0,18.0,84,0.00,,,0.14,Wunderground v.1.15,2013-12-11 04:05:00,
2013-12-10 23:15:00,26.7,23.1,30.22,ENE,73,0.0,18.0,86,0.00,,,0.14,Wunderground v.1.15,2013-12-11 04:15:00,
2013-12-10 23:25:00,26.6,23.3,30.22,ENE,73,0.0,18.0,87,0.00,,,0.14,Wunderground v.1.15,2013-12-11 04:25:00,
2013-12-10 23:35:00,26.5,22.9,30.22,ENE,73,0.0,18.0,86,0.00,,,0.14,Wunderground v.1.15,2013-12-11 04:35:00,
2013-12-10 23:45:00,26.5,22.9,30.22,ENE,73,0.0,18.0,86,0.00,,,0.14,Wunderground v.1.15,2013-12-11 04:45:00,
2013-12-10 23:50:00,26.5,23.2,30.22,ENE,73,0.0,18.0,87,0.00,,,0.14,Wunderground v.1.15,2013-12-11 04:50:00,